Time;durP1;ratioP1;P1;durP2;ratioP2;P2;SDS_P1;SDS_P2;PMS_P1;PMS_P2;Temp;Humidity;BMP_temperature;BMP_pressure;BME280_temperature;BME280_humidity;BME280_pressure;Samples;Min_cycle;Max_cycle;Signal;HPM_P1;HPM_P2
2021/10/30 00:02:01;;;;;;;7.90;5.33;;;9.30;99.90;;;;;;5036265;28;20765;-83
2021/10/30 00:04:27;;;;;;;10.37;5.47;;;9.20;99.90;;;;;;5053784;28;20713;-84
2021/10/30 00:06:54;;;;;;;7.83;4.97;;;9.30;99.90;;;;;;5033356;28;20423;-83
2021/10/30 00:09:20;;;;;;;9.63;5.57;;;9.40;99.90;;;;;;5054094;28;20426;-84
2021/10/30 00:11:46;;;;;;;8.87;6.50;;;9.50;99.90;;;;;;5053117;28;20502;-84
2021/10/30 00:14:11;;;;;;;9.07;5.47;;;9.50;99.90;;;;;;5053629;28;20172;-83
2021/10/30 00:16:37;;;;;;;10.07;5.90;;;9.50;99.90;;;;;;5053921;28;20226;-82
2021/10/30 00:19:03;;;;;;;8.67;5.80;;;9.50;99.90;;;;;;5053911;28;20172;-83
2021/10/30 00:21:29;;;;;;;5.63;4.80;;;9.50;99.90;;;;;;5053891;28;20177;-83
2021/10/30 00:23:55;;;;;;;7.50;4.30;;;9.40;99.90;;;;;;5050991;28;20566;-83
2021/10/30 00:26:20;;;;;;;8.10;5.73;;;9.40;99.90;;;;;;5053726;28;20414;-83
2021/10/30 00:28:47;;;;;;;8.07;5.37;;;9.40;99.90;;;;;;5035447;28;20178;-82
2021/10/30 00:31:12;;;;;;;6.93;5.23;;;9.40;99.90;;;;;;5053490;28;20180;-83
2021/10/30 00:33:38;;;;;;;7.50;6.10;;;9.30;99.90;;;;;;5054871;28;20453;-82
2021/10/30 00:36:04;;;;;;;6.23;4.33;;;9.30;99.90;;;;;;5054626;28;20178;-83
2021/10/30 00:38:30;;;;;;;7.30;4.00;;;9.30;99.90;;;;;;5054370;28;20183;-82
2021/10/30 00:40:55;;;;;;;6.27;4.87;;;9.30;99.90;;;;;;5054026;28;20414;-83
2021/10/30 00:43:21;;;;;;;8.77;5.70;;;9.20;99.90;;;;;;5054320;28;20303;-83
2021/10/30 00:45:48;;;;;;;6.93;5.23;;;9.30;99.90;;;;;;5054613;28;20176;-83
2021/10/30 00:48:16;;;;;;;6.60;4.93;;;9.30;99.90;;;;;;5037100;28;20987;-82
2021/10/30 00:50:42;;;;;;;6.10;5.03;;;9.30;99.90;;;;;;5054846;28;20434;-84
2021/10/30 00:53:09;;;;;;;6.47;4.07;;;9.30;99.90;;;;;;5036970;28;20488;-84
2021/10/30 00:55:36;;;;;;;7.47;5.47;;;9.40;99.90;;;;;;5054756;28;20413;-83
2021/10/30 00:58:03;;;;;;;9.80;5.93;;;9.40;99.90;;;;;;5054735;28;20502;-83
2021/10/30 01:00:29;;;;;;;7.83;5.00;;;9.40;99.90;;;;;;5054300;28;20448;-83
2021/10/30 01:02:55;;;;;;;7.67;4.73;;;9.50;99.90;;;;;;5054487;28;20411;-83
2021/10/30 01:05:21;;;;;;;7.17;4.30;;;9.50;99.90;;;;;;5054526;28;21055;-82
2021/10/30 01:07:47;;;;;;;5.80;4.00;;;9.50;99.90;;;;;;5035984;28;20418;-82
2021/10/30 01:10:13;;;;;;;6.67;5.93;;;9.50;99.90;;;;;;5054495;28;20173;-83
2021/10/30 01:12:39;;;;;;;8.03;5.00;;;9.50;99.90;;;;;;5036582;28;20176;-82
2021/10/30 01:15:06;;;;;;;6.40;4.40;;;9.50;99.90;;;;;;5053919;28;20430;-81
2021/10/30 01:17:33;;;;;;;10.63;3.97;;;9.50;99.90;;;;;;5053527;28;20167;-82
2021/10/30 01:19:58;;;;;;;9.17;5.77;;;9.40;99.90;;;;;;5054248;28;20432;-82
2021/10/30 01:22:25;;;;;;;6.80;5.40;;;9.40;99.90;;;;;;5054148;28;20423;-81
2021/10/30 01:24:51;;;;;;;8.60;5.43;;;9.30;99.90;;;;;;5054224;28;20244;-82
2021/10/30 01:27:19;;;;;;;8.00;6.60;;;9.20;99.90;;;;;;5054145;28;20422;-82
2021/10/30 01:29:49;;;;;;;6.43;4.60;;;9.00;99.90;;;;;;5053860;28;20418;-82
2021/10/30 01:32:17;;;;;;;9.00;5.33;;;8.90;99.90;;;;;;5054040;28;20414;-83
2021/10/30 01:34:43;;;;;;;8.23;5.20;;;8.80;99.90;;;;;;5054098;28;21117;-82
2021/10/30 01:37:08;;;;;;;7.60;5.40;;;8.60;99.90;;;;;;5054032;28;20410;-82
2021/10/30 01:39:34;;;;;;;6.80;5.17;;;8.40;99.90;;;;;;5053977;28;20164;-82
2021/10/30 01:42:00;;;;;;;6.83;4.80;;;8.30;99.90;;;;;;5053846;28;20183;-82
2021/10/30 01:44:26;;;;;;;6.87;4.30;;;8.30;99.90;;;;;;5053370;28;20212;-82
2021/10/30 01:47:00;;;;;;;9.53;5.17;;;8.30;99.90;;;;;;5053789;28;20271;-82
2021/10/30 01:49:26;;;;;;;9.03;5.50;;;8.40;99.90;;;;;;5053790;28;20420;-82
2021/10/30 01:51:52;;;;;;;5.33;4.40;;;8.60;99.90;;;;;;5053740;28;20910;-82
2021/10/30 01:54:18;;;;;;;9.47;5.40;;;8.70;99.90;;;;;;5053698;28;20500;-82
2021/10/30 01:56:44;;;;;;;8.97;5.37;;;8.80;99.90;;;;;;5052388;28;20475;-82
2021/10/30 01:59:10;;;;;;;8.47;5.03;;;8.90;99.90;;;;;;5053267;28;20430;-83
2021/10/30 02:01:35;;;;;;;9.50;6.00;;;8.80;99.90;;;;;;5053515;28;20187;-83
2021/10/30 02:04:01;;;;;;;8.87;5.67;;;8.90;99.90;;;;;;5053134;28;20235;-83
2021/10/30 02:06:27;;;;;;;6.93;4.60;;;8.80;99.90;;;;;;5053450;28;20176;-84
2021/10/30 02:08:53;;;;;;;5.50;4.03;;;8.40;99.90;;;;;;5053325;28;20433;-84
2021/10/30 02:11:19;;;;;;;5.63;4.30;;;8.20;99.90;;;;;;5053371;28;20180;-84
2021/10/30 02:13:44;;;;;;;9.47;5.00;;;8.10;99.90;;;;;;5053003;28;20512;-84
2021/10/30 02:16:13;;;;;;;7.60;5.43;;;8.00;99.90;;;;;;5053316;28;20175;-84
2021/10/30 02:18:38;;;;;;;6.93;5.03;;;8.30;99.90;;;;;;5053141;28;20179;-83
2021/10/30 02:21:05;;;;;;;8.17;4.10;;;8.30;99.90;;;;;;5053132;28;20410;-84
2021/10/30 02:23:30;;;;;;;7.43;4.70;;;8.40;99.90;;;;;;5053124;28;20214;-84
2021/10/30 02:25:56;;;;;;;5.30;3.80;;;8.30;99.90;;;;;;5053115;28;20772;-84
2021/10/30 02:28:22;;;;;;;7.50;5.87;;;8.30;99.90;;;;;;5051425;28;20183;-84
2021/10/30 02:30:47;;;;;;;7.40;5.00;;;8.30;99.90;;;;;;5053033;28;20173;-84
2021/10/30 02:33:14;;;;;;;7.50;5.03;;;8.40;99.90;;;;;;5052987;28;20513;-83
2021/10/30 02:35:39;;;;;;;6.50;5.20;;;8.50;99.90;;;;;;5052933;28;20191;-84
2021/10/30 02:38:05;;;;;;;8.83;4.70;;;8.50;99.90;;;;;;5052695;28;20474;-84
2021/10/30 02:40:30;;;;;;;8.03;4.07;;;8.60;99.90;;;;;;5052735;28;20210;-84
2021/10/30 02:42:56;;;;;;;5.90;5.00;;;8.60;99.90;;;;;;5051536;28;20658;-83
2021/10/30 02:45:21;;;;;;;5.40;4.10;;;8.70;99.90;;;;;;5052481;28;20186;-84
2021/10/30 02:47:47;;;;;;;7.90;3.87;;;8.60;99.90;;;;;;5052796;28;20637;-84
2021/10/30 02:50:13;;;;;;;9.30;4.50;;;8.60;99.90;;;;;;5052838;28;20206;-84
2021/10/30 02:52:40;;;;;;;9.00;5.20;;;8.50;99.90;;;;;;5052809;28;20493;-83
2021/10/30 02:55:06;;;;;;;7.03;4.40;;;8.50;99.90;;;;;;5052769;28;20178;-84
2021/10/30 02:57:32;;;;;;;10.80;4.87;;;8.40;99.90;;;;;;5052671;28;20455;-84
2021/10/30 02:59:57;;;;;;;6.83;5.43;;;8.40;99.90;;;;;;5052359;28;20428;-84
2021/10/30 03:02:23;;;;;;;7.23;4.57;;;8.40;99.90;;;;;;5052686;28;20179;-84
2021/10/30 03:04:48;;;;;;;6.97;4.80;;;8.40;99.90;;;;;;5051112;28;20245;-83
2021/10/30 03:07:14;;;;;;;7.27;4.50;;;8.50;99.90;;;;;;5052605;28;20185;-83
2021/10/30 03:09:40;;;;;;;5.37;4.07;;;8.50;99.90;;;;;;5052639;28;20228;-83
2021/10/30 03:12:06;;;;;;;7.03;3.83;;;8.60;99.90;;;;;;5052583;28;20426;-84
2021/10/30 03:14:31;;;;;;;5.57;4.33;;;8.60;99.90;;;;;;5052209;28;20209;-84
2021/10/30 03:16:57;;;;;;;5.83;4.07;;;8.50;99.90;;;;;;5052531;28;20178;-82
2021/10/30 03:19:22;;;;;;;6.53;4.53;;;8.50;99.90;;;;;;5052542;28;20646;-83
2021/10/30 03:21:48;;;;;;;8.03;3.50;;;8.50;99.90;;;;;;5052504;28;20543;-84
2021/10/30 03:24:16;;;;;;;6.70;4.23;;;8.50;99.90;;;;;;5052371;28;20253;-84
2021/10/30 03:26:42;;;;;;;10.63;4.50;;;8.50;99.90;;;;;;5052513;28;20198;-83
2021/10/30 03:29:07;;;;;;;7.63;4.50;;;8.50;99.90;;;;;;5050832;28;20451;-83
2021/10/30 03:31:33;;;;;;;7.07;4.90;;;8.50;99.90;;;;;;5055847;28;20176;-83
2021/10/30 03:33:58;;;;;;;7.50;5.70;;;8.50;99.90;;;;;;5056257;28;20182;-83
2021/10/30 03:36:24;;;;;;;4.97;4.20;;;8.60;99.90;;;;;;5056194;28;20178;-84
2021/10/30 03:38:50;;;;;;;5.30;4.60;;;8.50;99.90;;;;;;5056264;28;20170;-83
2021/10/30 03:41:15;;;;;;;5.83;4.33;;;8.50;99.90;;;;;;5056294;28;20692;-84
2021/10/30 03:43:41;;;;;;;7.17;5.17;;;8.40;99.90;;;;;;5055688;28;20307;-83
2021/10/30 03:46:07;;;;;;;6.60;4.20;;;8.40;99.90;;;;;;5056120;28;20169;-83
2021/10/30 03:48:32;;;;;;;6.80;5.07;;;8.50;99.90;;;;;;5054835;28;20261;-83
2021/10/30 03:50:58;;;;;;;7.97;4.93;;;8.40;99.90;;;;;;5056015;28;20500;-84
2021/10/30 03:53:24;;;;;;;5.93;3.57;;;8.40;99.90;;;;;;5055288;28;20178;-84
2021/10/30 03:55:49;;;;;;;5.70;4.30;;;8.40;99.90;;;;;;5055715;28;20547;-84
2021/10/30 03:58:16;;;;;;;8.87;4.50;;;8.40;99.90;;;;;;5055563;28;20277;-84
2021/10/30 04:00:43;;;;;;;8.40;5.70;;;8.40;99.90;;;;;;5055827;28;20185;-84
2021/10/30 04:03:10;;;;;;;6.53;4.60;;;8.40;99.90;;;;;;5055565;28;20959;-87
2021/10/30 04:05:36;;;;;;;5.93;5.03;;;8.40;99.90;;;;;;5055852;28;20907;-85
2021/10/30 04:08:02;;;;;;;5.80;4.27;;;8.40;99.90;;;;;;5055629;28;20500;-84
2021/10/30 04:10:27;;;;;;;5.13;3.70;;;8.40;99.90;;;;;;5055565;28;20684;-84
2021/10/30 04:12:53;;;;;;;5.43;3.87;;;8.40;99.90;;;;;;5055295;28;20278;-82
2021/10/30 04:15:19;;;;;;;5.37;4.30;;;8.40;99.90;;;;;;5055611;28;20177;-85
2021/10/30 04:17:47;;;;;;;6.00;4.23;;;8.50;99.90;;;;;;5055309;28;20232;-84
2021/10/30 04:20:13;;;;;;;5.77;3.63;;;8.50;99.90;;;;;;5055473;28;20186;-85
2021/10/30 04:22:38;;;;;;;5.40;3.77;;;8.50;99.90;;;;;;5055378;28;20417;-85
2021/10/30 04:25:04;;;;;;;6.90;4.97;;;8.50;99.90;;;;;;5055211;28;20241;-88
2021/10/30 04:27:30;;;;;;;7.63;5.30;;;8.40;99.90;;;;;;5055383;28;20179;-84
2021/10/30 04:29:55;;;;;;;5.57;3.77;;;8.40;99.90;;;;;;5055007;28;20424;-85
2021/10/30 04:32:21;;;;;;;7.20;4.57;;;8.40;99.90;;;;;;5055274;28;20178;-85
2021/10/30 04:34:49;;;;;;;5.30;4.00;;;8.50;99.90;;;;;;5055214;28;20529;-85
2021/10/30 04:37:16;;;;;;;5.50;3.93;;;8.50;99.90;;;;;;5054898;28;20193;-83
2021/10/30 04:39:46;;;;;;;8.17;6.03;;;8.60;99.90;;;;;;5055069;28;20906;-84
2021/10/30 04:42:13;;;;;;;5.90;5.30;;;8.60;99.90;;;;;;5053798;28;20417;-84
2021/10/30 04:44:38;;;;;;;6.57;4.97;;;8.60;99.90;;;;;;5036686;28;20505;-83
2021/10/30 04:47:04;;;;;;;8.37;5.50;;;8.60;99.90;;;;;;5054992;28;20940;-83
2021/10/30 04:49:30;;;;;;;4.37;3.47;;;8.60;99.90;;;;;;5054856;28;20186;-84
2021/10/30 04:51:56;;;;;;;7.23;4.43;;;8.50;99.90;;;;;;5054855;28;20786;-83
2021/10/30 04:54:22;;;;;;;9.80;4.97;;;8.50;99.90;;;;;;5054842;28;20251;-83
2021/10/30 04:56:47;;;;;;;7.53;5.07;;;8.50;99.90;;;;;;5054793;28;20584;-85
2021/10/30 04:59:13;;;;;;;8.43;5.33;;;8.40;99.90;;;;;;5054411;28;20262;-84
2021/10/30 05:01:38;;;;;;;7.50;4.30;;;8.40;99.90;;;;;;5054630;28;20249;-84
2021/10/30 05:04:04;;;;;;;8.10;5.60;;;8.40;99.90;;;;;;5054366;28;20232;-84
2021/10/30 05:06:29;;;;;;;7.77;4.90;;;8.40;99.90;;;;;;5054544;28;20175;-84
2021/10/30 05:08:55;;;;;;;6.57;4.60;;;8.40;99.90;;;;;;5054521;28;20176;-83
2021/10/30 05:11:21;;;;;;;8.70;5.83;;;8.30;99.90;;;;;;5054596;28;20200;-83
2021/10/30 05:13:46;;;;;;;8.20;5.53;;;8.30;99.90;;;;;;5053989;28;20175;-84
2021/10/30 05:16:12;;;;;;;6.17;4.40;;;8.30;99.90;;;;;;5036473;28;20512;-84
2021/10/30 05:18:38;;;;;;;9.27;5.93;;;8.20;99.90;;;;;;5036416;28;20205;-85
2021/10/30 05:21:03;;;;;;;11.00;5.43;;;8.20;99.90;;;;;;5054176;28;20413;-84
2021/10/30 05:23:29;;;;;;;10.97;6.20;;;8.30;99.90;;;;;;5054095;28;20780;-84
2021/10/30 05:25:55;;;;;;;11.00;6.17;;;8.30;99.90;;;;;;5054167;28;20225;-83
2021/10/30 05:28:23;;;;;;;8.37;5.83;;;8.40;99.90;;;;;;5035930;28;20587;-84
2021/10/30 05:30:50;;;;;;;9.30;6.63;;;8.30;99.90;;;;;;5054024;28;20202;-83
2021/10/30 05:33:16;;;;;;;9.13;6.17;;;8.30;99.90;;;;;;5054092;28;20425;-83
2021/10/30 05:35:41;;;;;;;9.10;5.47;;;8.30;99.90;;;;;;5054129;28;20426;-84
2021/10/30 05:38:07;;;;;;;8.10;5.93;;;8.30;99.90;;;;;;5054015;28;20432;-83
2021/10/30 05:40:34;;;;;;;11.77;7.50;;;8.20;99.90;;;;;;5053950;28;20178;-83
2021/10/30 05:43:00;;;;;;;9.40;4.80;;;8.20;99.90;;;;;;5051750;28;20275;-83
2021/10/30 05:45:25;;;;;;;9.90;6.47;;;8.20;99.90;;;;;;5053892;28;20533;-85
2021/10/30 05:47:51;;;;;;;12.80;5.80;;;8.20;99.90;;;;;;5035928;28;20182;-86
2021/10/30 05:50:17;;;;;;;13.17;6.00;;;8.20;99.90;;;;;;5053800;28;20547;-86
2021/10/30 05:52:42;;;;;;;8.00;5.77;;;8.20;99.90;;;;;;5053309;28;20186;-85
2021/10/30 05:55:08;;;;;;;11.40;7.10;;;8.30;99.90;;;;;;5054025;28;20588;-84
2021/10/30 05:57:34;;;;;;;11.93;6.40;;;8.30;99.90;;;;;;5053442;28;20191;-83
2021/10/30 05:59:59;;;;;;;10.43;6.60;;;8.30;99.90;;;;;;5053412;28;20897;-85
2021/10/30 06:02:25;;;;;;;11.90;7.10;;;8.30;99.90;;;;;;5035815;28;20259;-83
2021/10/30 06:04:53;;;;;;;7.97;6.50;;;8.40;99.90;;;;;;5053111;28;20225;-86
2021/10/30 06:07:18;;;;;;;9.60;6.50;;;8.40;99.90;;;;;;5053485;28;20639;-85
2021/10/30 06:09:44;;;;;;;9.70;6.77;;;8.40;99.90;;;;;;5053365;28;20421;-86
2021/10/30 06:12:10;;;;;;;9.33;6.83;;;8.40;99.90;;;;;;5053136;28;20178;-84
2021/10/30 06:14:36;;;;;;;8.70;6.00;;;8.40;99.90;;;;;;5035214;28;20209;-83
2021/10/30 06:17:01;;;;;;;10.30;7.90;;;8.40;99.90;;;;;;5052647;28;20188;-85
2021/10/30 06:19:27;;;;;;;9.43;6.40;;;8.40;99.90;;;;;;5053310;28;20178;-84
2021/10/30 06:21:53;;;;;;;8.57;5.40;;;8.40;99.90;;;;;;5053297;28;20534;-84
2021/10/30 06:24:19;;;;;;;7.70;5.23;;;8.40;99.90;;;;;;5053134;28;20667;-85
2021/10/30 06:26:44;;;;;;;9.13;5.50;;;8.30;99.90;;;;;;5053162;28;20239;-84
2021/10/30 06:29:10;;;;;;;9.10;6.83;;;8.40;99.90;;;;;;5035174;28;20183;-86
2021/10/30 06:31:35;;;;;;;8.40;6.67;;;8.40;99.90;;;;;;5053128;28;20176;-87
2021/10/30 06:34:01;;;;;;;10.80;5.97;;;8.60;99.90;;;;;;5053017;28;20642;-86
2021/10/30 06:36:27;;;;;;;9.43;6.67;;;8.60;99.90;;;;;;5052751;28;20253;-84
2021/10/30 06:38:52;;;;;;;8.47;6.87;;;8.70;99.90;;;;;;5052955;28;20171;-84
2021/10/30 06:41:18;;;;;;;10.30;7.30;;;8.80;99.90;;;;;;5052981;28;20209;-84
2021/10/30 06:43:44;;;;;;;10.70;7.80;;;8.80;99.90;;;;;;5052429;28;20206;-83
2021/10/30 06:46:09;;;;;;;10.40;6.37;;;8.80;99.90;;;;;;5052802;28;20212;-84
2021/10/30 06:48:37;;;;;;;9.40;6.80;;;8.80;99.90;;;;;;5052779;28;20174;-84
2021/10/30 06:51:04;;;;;;;11.70;7.20;;;8.90;99.90;;;;;;5052814;28;20565;-84
2021/10/30 06:53:30;;;;;;;8.80;6.23;;;9.00;99.90;;;;;;5052833;28;20409;-83
2021/10/30 06:55:58;;;;;;;8.30;5.33;;;9.10;99.90;;;;;;5051980;28;20413;-84
2021/10/30 06:58:26;;;;;;;7.20;6.10;;;9.10;99.90;;;;;;5034661;28;20209;-83
2021/10/30 07:00:52;;;;;;;9.83;7.50;;;9.10;99.90;;;;;;5052498;28;20420;-83
2021/10/30 07:03:17;;;;;;;11.03;7.43;;;9.20;99.90;;;;;;5052241;28;20462;-83
2021/10/30 07:05:43;;;;;;;11.47;6.80;;;9.30;99.90;;;;;;5054597;28;20272;-84
2021/10/30 07:08:11;;;;;;;10.17;5.40;;;9.30;99.90;;;;;;5056734;28;20550;-83
2021/10/30 07:10:40;;;;;;;8.00;6.47;;;9.30;99.90;;;;;;5056839;28;20575;-82
2021/10/30 07:13:06;;;;;;;7.97;5.60;;;9.30;99.90;;;;;;5056307;28;20533;-84
2021/10/30 07:15:31;;;;;;;11.20;5.60;;;9.30;99.90;;;;;;5056526;28;20937;-83
2021/10/30 07:17:57;;;;;;;7.30;5.73;;;9.30;99.90;;;;;;5056607;28;20224;-82
2021/10/30 07:20:23;;;;;;;9.77;5.83;;;9.30;99.90;;;;;;5056583;28;20175;-83
2021/10/30 07:22:50;;;;;;;9.33;6.07;;;9.30;99.90;;;;;;5056554;28;20185;-83
2021/10/30 07:25:18;;;;;;;11.53;6.50;;;9.30;99.90;;;;;;5056605;28;20428;-83
2021/10/30 07:27:44;;;;;;;9.20;5.63;;;9.30;99.90;;;;;;5054987;28;20413;-84
2021/10/30 07:30:11;;;;;;;11.73;6.93;;;9.50;99.90;;;;;;5055120;28;20912;-83
2021/10/30 07:32:37;;;;;;;8.87;6.83;;;9.50;99.90;;;;;;5052346;28;20756;-83
2021/10/30 07:35:09;;;;;;;9.83;6.30;;;9.60;99.90;;;;;;5055064;28;20773;-82
2021/10/30 07:37:36;;;;;;;10.33;6.20;;;9.60;99.90;;;;;;5055141;28;20948;-82
2021/10/30 07:40:04;;;;;;;10.53;5.70;;;9.60;99.90;;;;;;5054773;28;20414;-83
2021/10/30 07:42:29;;;;;;;11.80;7.87;;;9.70;99.90;;;;;;5054506;28;20419;-84
2021/10/30 07:44:55;;;;;;;14.20;7.17;;;9.70;99.90;;;;;;5054595;28;20473;-83
2021/10/30 07:47:22;;;;;;;8.67;5.87;;;9.80;99.90;;;;;;5054739;28;20179;-84
2021/10/30 07:49:47;;;;;;;9.57;5.90;;;9.80;99.90;;;;;;5054441;28;20174;-83
2021/10/30 07:52:13;;;;;;;9.30;6.70;;;9.80;99.90;;;;;;5054521;28;20437;-83
2021/10/30 07:54:39;;;;;;;13.07;7.03;;;9.80;99.90;;;;;;5054606;28;20170;-82
2021/10/30 07:57:10;;;;;;;9.23;5.40;;;9.90;99.90;;;;;;5054604;28;20181;-83
2021/10/30 07:59:37;;;;;;;9.90;6.23;;;10.10;99.90;;;;;;5053997;28;20413;-83
2021/10/30 08:02:03;;;;;;;8.30;5.90;;;10.30;99.90;;;;;;5054495;28;20415;-82
2021/10/30 08:04:36;;;;;;;10.23;6.03;;;10.40;99.90;;;;;;5053871;28;20925;-84
2021/10/30 08:07:03;;;;;;;11.20;8.70;;;10.60;99.90;;;;;;5051980;28;20425;-84
2021/10/30 08:09:30;;;;;;;7.37;4.53;;;10.70;99.90;;;;;;5054482;28;20423;-84
2021/10/30 08:11:55;;;;;;;8.40;6.50;;;10.80;99.90;;;;;;5055182;28;20408;-84
2021/10/30 08:14:21;;;;;;;8.73;7.40;;;10.80;99.90;;;;;;5050254;28;20958;-83
2021/10/30 08:16:47;;;;;;;7.33;5.40;;;10.70;99.90;;;;;;5053562;28;20177;-83
2021/10/30 08:19:12;;;;;;;10.40;5.67;;;11.10;99.90;;;;;;5054051;28;20205;-83
2021/10/30 08:21:39;;;;;;;10.40;6.57;;;11.70;99.90;;;;;;5054102;28;20166;-87
2021/10/30 08:24:05;;;;;;;5.67;4.87;;;12.50;99.90;;;;;;5054250;28;20199;-82
2021/10/30 08:26:30;;;;;;;9.00;4.67;;;13.90;99.90;;;;;;5053942;28;20417;-82
2021/10/30 08:28:57;;;;;;;7.70;4.90;;;14.10;99.90;;;;;;5053490;28;20236;-83
2021/10/30 08:31:22;;;;;;;6.60;5.27;;;14.10;99.90;;;;;;5053955;28;20177;-83
2021/10/30 08:33:53;;;;;;;7.60;4.17;;;13.50;99.90;;;;;;5052639;28;20416;-82
2021/10/30 08:36:21;;;;;;;6.33;5.57;;;13.40;99.90;;;;;;5054721;28;20507;-83
2021/10/30 08:38:47;;;;;;;6.00;4.40;;;14.10;99.90;;;;;;5037313;28;20413;-83
2021/10/30 08:41:12;;;;;;;8.80;4.90;;;14.90;99.90;;;;;;5054995;28;20417;-84
2021/10/30 08:43:45;;;;;;;6.57;3.97;;;16.20;99.90;;;;;;5054587;28;20219;-83
2021/10/30 08:46:13;;;;;;;5.87;5.13;;;17.40;99.90;;;;;;5054895;28;20171;-84
2021/10/30 08:48:40;;;;;;;6.53;4.40;;;16.50;99.90;;;;;;5036941;28;20422;-83
2021/10/30 08:51:06;;;;;;;7.63;5.23;;;14.90;99.90;;;;;;5020596;28;21012;-82
2021/10/30 08:53:32;;;;;;;5.77;5.03;;;15.00;99.90;;;;;;5054777;28;20494;-83
2021/10/30 08:56:03;;;;;;;7.10;5.87;;;16.20;99.90;;;;;;5054249;28;20414;-81
2021/10/30 08:58:30;;;;;;;5.43;4.30;;;15.20;99.90;;;;;;5053965;28;20268;-82
2021/10/30 09:00:59;;;;;;;6.93;6.23;;;13.40;99.90;;;;;;5054560;28;20417;-81
2021/10/30 09:03:25;;;;;;;6.27;4.30;;;14.70;99.90;;;;;;5054470;28;20451;-81
2021/10/30 09:05:54;;;;;;;7.20;4.97;;;16.60;99.90;;;;;;5054107;28;20428;-81
2021/10/30 09:08:23;;;;;;;6.80;5.10;;;15.70;99.90;;;;;;5050317;28;20471;-82
2021/10/30 09:10:52;;;;;;;7.87;5.07;;;14.80;99.90;;;;;;5052935;28;20958;-82
2021/10/30 09:13:26;;;;;;;7.30;4.67;;;14.60;99.90;;;;;;5052371;28;20962;-83
2021/10/30 09:15:54;;;;;;;8.50;6.13;;;14.60;99.90;;;;;;5050924;28;20430;-82
2021/10/30 09:18:29;;;;;;;6.27;5.30;;;14.50;99.90;;;;;;5053182;28;20435;-83
2021/10/30 09:20:56;;;;;;;6.67;6.03;;;13.90;99.90;;;;;;5051587;28;20430;-82
2021/10/30 09:23:27;;;;;;;8.30;4.90;;;13.80;99.90;;;;;;5053469;28;20544;-83
2021/10/30 09:25:59;;;;;;;11.63;5.13;;;13.20;99.90;;;;;;5051073;28;20421;-82
2021/10/30 09:28:28;;;;;;;8.30;5.33;;;15.90;99.90;;;;;;5052016;28;20417;-83
2021/10/30 09:31:08;;;;;;;9.90;6.73;;;14.70;99.90;;;;;;5032537;28;20449;-82
2021/10/30 09:33:37;;;;;;;9.20;5.90;;;14.00;99.90;;;;;;5050847;28;20464;-83
2021/10/30 09:36:09;;;;;;;7.33;5.60;;;14.00;99.90;;;;;;5053132;28;20426;-82
2021/10/30 09:38:37;;;;;;;7.30;5.83;;;14.10;99.90;;;;;;5032887;28;20501;-83
2021/10/30 09:41:22;;;;;;;7.60;5.97;;;13.50;99.90;;;;;;5035267;28;20418;-83
2021/10/30 09:44:05;;;;;;;7.30;5.30;;;13.00;99.90;;;;;;5052129;28;20457;-83
2021/10/30 09:46:34;;;;;;;6.70;5.43;;;12.80;99.90;;;;;;5052328;28;20422;-81
2021/10/30 09:49:12;;;;;;;8.17;5.83;;;12.50;99.90;;;;;;5055725;28;20443;-81
2021/10/30 09:51:38;;;;;;;7.37;6.27;;;12.50;99.90;;;;;;5052532;28;20440;-80
2021/10/30 09:54:05;;;;;;;7.30;5.97;;;12.60;99.90;;;;;;5050713;28;20962;-81
2021/10/30 09:56:51;;;;;;;10.13;7.03;;;12.40;99.90;;;;;;5052310;28;20176;-81
2021/10/30 09:59:18;;;;;;;6.73;5.37;;;12.40;99.90;;;;;;5052543;28;20464;-82
2021/10/30 10:01:49;;;;;;;6.57;5.63;;;12.50;99.90;;;;;;5053614;28;20428;-82
2021/10/30 10:04:17;;;;;;;9.60;5.33;;;12.70;99.90;;;;;;5053163;28;20840;-82
2021/10/30 10:06:45;;;;;;;9.87;6.10;;;12.90;99.90;;;;;;5053437;28;20412;-81
2021/10/30 10:09:12;;;;;;;10.70;6.07;;;13.10;99.90;;;;;;5053279;28;20414;-80
2021/10/30 10:11:47;;;;;;;9.03;5.67;;;13.20;99.90;;;;;;5053348;28;20435;-81
2021/10/30 10:14:14;;;;;;;8.23;5.60;;;13.30;99.90;;;;;;5052982;28;20499;-80
2021/10/30 10:16:45;;;;;;;11.10;6.37;;;13.30;99.90;;;;;;5053085;28;20409;-82
2021/10/30 10:19:11;;;;;;;6.33;5.13;;;13.60;99.90;;;;;;5053298;28;20412;-83
2021/10/30 10:21:39;;;;;;;6.83;5.00;;;14.60;99.90;;;;;;5053218;28;20407;-81
2021/10/30 10:24:10;;;;;;;7.80;5.27;;;16.00;99.90;;;;;;5052990;28;20470;-81
2021/10/30 10:26:45;;;;;;;7.40;5.03;;;18.70;99.90;;;;;;5053008;28;20430;-84
2021/10/30 10:29:12;;;;;;;9.63;6.53;;;19.90;98.80;;;;;;5052543;28;20493;-83
2021/10/30 10:31:48;;;;;;;7.60;6.00;;;19.40;99.90;;;;;;5052986;28;20857;-82
2021/10/30 10:34:20;;;;;;;8.20;6.13;;;20.30;96.60;;;;;;5052859;28;20406;-82
2021/10/30 10:37:12;;;;;;;6.70;5.40;;;21.20;95.40;;;;;;5053011;28;20427;-81
2021/10/30 10:39:41;;;;;;;5.93;5.23;;;20.80;96.70;;;;;;5042198;28;20423;-82
2021/10/30 10:42:37;;;;;;;7.50;5.90;;;19.70;96.50;;;;;;5052267;28;20426;-85
2021/10/30 10:45:12;;;;;;;6.83;6.07;;;18.80;98.90;;;;;;5052662;28;20483;-83
2021/10/30 10:47:58;;;;;;;6.57;5.50;;;18.40;99.90;;;;;;5051421;28;20422;-82
2021/10/30 10:50:34;;;;;;;5.90;4.67;;;17.80;99.90;;;;;;5052714;28;20413;-83
2021/10/30 10:53:03;;;;;;;8.07;5.40;;;17.10;99.90;;;;;;5052748;28;20403;-82
2021/10/30 10:55:45;;;;;;;5.20;4.70;;;17.80;99.90;;;;;;5052659;28;20776;-82
2021/10/30 10:58:12;;;;;;;5.80;5.30;;;17.70;99.90;;;;;;5052271;28;20537;-83
2021/10/30 11:00:58;;;;;;;8.47;5.60;;;18.20;99.90;;;;;;5052525;28;20560;-82
2021/10/30 11:03:28;;;;;;;5.97;5.40;;;17.50;99.90;;;;;;5052172;28;20494;-82
2021/10/30 11:06:03;;;;;;;6.43;5.83;;;16.90;99.90;;;;;;5052544;28;20425;-82
2021/10/30 11:08:32;;;;;;;6.53;5.23;;;16.10;99.90;;;;;;5051291;28;20956;-82
2021/10/30 11:11:15;;;;;;;6.87;4.90;;;15.80;99.90;;;;;;5052501;28;20418;-84
2021/10/30 11:13:55;;;;;;;5.77;4.60;;;15.60;99.90;;;;;;5052311;28;20552;-86
2021/10/30 11:16:30;;;;;;;5.53;4.93;;;15.30;99.90;;;;;;5052438;28;20409;-86
2021/10/30 11:19:12;;;;;;;6.30;4.77;;;15.30;99.90;;;;;;5052515;28;20440;-85
2021/10/30 11:21:43;;;;;;;5.13;3.80;;;15.30;99.90;;;;;;5037068;28;20458;-86
2021/10/30 11:24:27;;;;;;;6.03;4.23;;;15.20;99.90;;;;;;5052497;28;20864;-81
2021/10/30 11:26:58;;;;;;;5.70;3.80;;;15.30;99.90;;;;;;5052032;28;20922;-81
2021/10/30 11:29:26;;;;;;;5.60;4.60;;;15.50;99.90;;;;;;5052168;28;20907;-81
2021/10/30 11:32:00;;;;;;;4.63;3.40;;;15.50;99.90;;;;;;5050995;28;20424;-81
2021/10/30 11:34:27;;;;;;;6.40;3.90;;;15.60;99.90;;;;;;5052117;28;20801;-82
2021/10/30 11:36:56;;;;;;;7.33;5.10;;;15.40;99.90;;;;;;5052336;28;20519;-81
2021/10/30 11:39:31;;;;;;;5.13;4.33;;;15.50;99.90;;;;;;5052576;28;20424;-80
2021/10/30 11:42:05;;;;;;;7.07;4.97;;;15.40;99.90;;;;;;5052149;28;20436;-80
2021/10/30 11:44:47;;;;;;;8.00;3.80;;;15.30;99.90;;;;;;5052401;28;20477;-81
2021/10/30 11:47:14;;;;;;;4.93;3.77;;;15.40;99.90;;;;;;5052026;28;20510;-81
2021/10/30 11:49:39;;;;;;;6.77;3.60;;;15.30;99.90;;;;;;5052352;28;20422;-81
2021/10/30 11:52:10;;;;;;;4.80;4.07;;;15.20;99.90;;;;;;5036996;28;20417;-81
2021/10/30 11:54:37;;;;;;;6.30;3.80;;;15.20;99.90;;;;;;5056310;28;20166;-81
2021/10/30 11:57:10;;;;;;;4.40;3.33;;;15.10;99.90;;;;;;5037976;28;20420;-81
2021/10/30 11:59:41;;;;;;;6.70;4.03;;;15.00;99.90;;;;;;5055742;28;20460;-82
2021/10/30 12:02:15;;;;;;;5.60;4.00;;;15.00;99.90;;;;;;5055658;28;20420;-80
2021/10/30 12:04:41;;;;;;;10.00;5.47;;;14.90;99.90;;;;;;5055296;28;20552;-80
2021/10/30 12:07:08;;;;;;;5.97;5.00;;;14.90;99.90;;;;;;5038172;28;20766;-81
2021/10/30 12:09:36;;;;;;;7.60;4.73;;;14.90;99.90;;;;;;5037977;28;20420;-81
2021/10/30 12:12:02;;;;;;;8.33;5.30;;;14.80;99.90;;;;;;5056244;28;20455;-80
2021/10/30 12:14:45;;;;;;;5.90;3.90;;;14.80;99.90;;;;;;5058865;28;20448;-80
2021/10/30 12:17:20;;;;;;;6.93;5.60;;;14.90;99.90;;;;;;5044999;28;20421;-82
2021/10/30 12:19:54;;;;;;;6.83;5.93;;;14.80;99.90;;;;;;5056040;28;20413;-81
2021/10/30 12:22:44;;;;;;;9.10;6.30;;;14.90;99.90;;;;;;5056150;28;20413;-82
2021/10/30 12:25:12;;;;;;;6.97;5.77;;;14.90;99.90;;;;;;5055092;28;20482;-82
2021/10/30 12:27:51;;;;;;;7.70;5.50;;;14.70;99.90;;;;;;5054473;28;20463;-82
2021/10/30 12:30:20;;;;;;;7.90;6.70;;;14.80;99.90;;;;;;5051961;28;20478;-82
2021/10/30 12:32:48;;;;;;;9.10;6.87;;;14.70;99.90;;;;;;5054112;28;20508;-81
2021/10/30 12:35:23;;;;;;;8.60;6.43;;;14.70;99.90;;;;;;5052254;28;20417;-80
2021/10/30 12:37:50;;;;;;;9.53;6.70;;;14.60;99.90;;;;;;5122953;22;20411;-79
2021/10/30 12:40:18;;;;;;;10.00;5.73;;;14.50;99.90;;;;;;5091755;28;20431;-82
2021/10/30 12:42:45;;;;;;;9.10;7.10;;;14.50;99.90;;;;;;5093247;28;20415;-82
2021/10/30 12:45:11;;;;;;;10.70;8.17;;;14.40;99.90;;;;;;5093991;28;21020;-82
2021/10/30 12:47:38;;;;;;;10.53;7.33;;;14.20;99.90;;;;;;5095398;28;20415;-83
2021/10/30 12:50:10;;;;;;;8.00;6.73;;;14.20;99.90;;;;;;5095270;28;20180;-83
2021/10/30 12:52:48;;;;;;;10.53;7.53;;;14.10;99.90;;;;;;5077185;28;20410;-82
2021/10/30 12:55:17;;;;;;;11.87;8.60;;;14.00;99.90;;;;;;5095152;28;20405;-82